createdAt,value
2023-01-21T00:02:43.447Z,-0.30
2023-01-21T00:05:33.346Z,-0.20
2023-01-21T00:08:23.321Z,-0.30
2023-01-21T00:11:12.095Z,0.30
2023-01-21T00:14:00.007Z,-0.40
2023-01-21T00:16:48.043Z,-0.30
2023-01-21T00:19:38.360Z,-0.40
2023-01-21T00:22:25.728Z,-0.40
2023-01-21T00:25:15.076Z,-0.50
2023-01-21T00:28:02.554Z,-0.30
2023-01-21T00:30:52.477Z,-0.50
2023-01-21T00:33:53.641Z,-0.50
2023-01-21T00:36:46.880Z,-0.70
2023-01-21T00:39:34.948Z,-0.50
2023-01-21T00:42:24.563Z,-0.60
2023-01-21T00:45:15.288Z,-0.30
2023-01-21T00:51:10.945Z,-0.60
2023-01-21T00:54:09.771Z,-0.60
2023-01-21T00:57:07.251Z,-0.40
2023-01-21T00:59:58.143Z,-0.10
2023-01-21T01:03:14.984Z,0.90
2023-01-21T01:06:05.595Z,-0.20
2023-01-21T01:09:01.039Z,1.10
2023-01-21T01:12:02.305Z,-0.40
2023-01-21T01:15:23.766Z,-0.70
2023-01-21T01:18:16.536Z,0.70
2023-01-21T01:21:09.146Z,-0.70
2023-01-21T01:24:39.032Z,-0.80
2023-01-21T01:27:35.317Z,-0.40
2023-01-21T01:30:31.084Z,0.50
2023-01-21T01:33:27.780Z,-0.80
2023-01-21T01:36:18.397Z,-0.80
2023-01-21T01:39:06.671Z,-2.90
2023-01-21T01:41:55.964Z,-0.70
2023-01-21T01:44:57.583Z,0.00
2023-01-21T01:47:48.859Z,-0.90
2023-01-21T01:53:46.747Z,-1.10
2023-01-21T01:56:42.085Z,-1.00
2023-01-21T01:59:35.380Z,-0.90
2023-01-21T02:02:23.339Z,-0.90
2023-01-21T02:05:30.762Z,-0.10
2023-01-21T02:08:23.694Z,-1.90
2023-01-21T02:11:13.284Z,-0.50
2023-01-21T02:18:51.400Z,-1.00
2023-01-21T02:22:01.799Z,-1.00
2023-01-21T02:25:04.451Z,-0.30
2023-01-21T02:28:08.559Z,-0.50
2023-01-21T02:34:40.187Z,-1.10
2023-01-21T02:41:05.992Z,-0.90
2023-01-21T02:44:09.223Z,-0.70
2023-01-21T02:47:11.511Z,-0.70
2023-01-21T02:50:39.006Z,-1.10
2023-01-21T02:57:43.384Z,-1.40
2023-01-21T03:00:40.972Z,-1.00
2023-01-21T03:03:50.931Z,-1.20
2023-01-21T03:06:54.543Z,-0.80
2023-01-21T03:09:44.627Z,-0.70
2023-01-21T03:12:41.155Z,-1.20
2023-01-21T03:15:59.386Z,0.40
2023-01-21T03:28:35.405Z,-1.20
2023-01-21T03:31:27.181Z,-0.60
2023-01-21T03:34:17.139Z,-1.40
2023-01-21T03:37:07.142Z,-1.50
2023-01-21T03:40:01.671Z,-1.60
2023-01-21T03:42:53.955Z,-1.70
2023-01-21T03:45:50.797Z,-1.60
2023-01-21T03:48:43.563Z,-2.70
2023-01-21T03:51:36.354Z,-1.70
2023-01-21T03:54:32.283Z,-1.70
2023-01-21T03:57:36.896Z,-1.30
2023-01-21T04:00:27.605Z,-1.10
2023-01-21T04:07:48.873Z,-1.70
2023-01-21T04:10:41.915Z,0.50
2023-01-21T04:13:43.925Z,-1.90
2023-01-21T04:16:35.785Z,-2.20
2023-01-21T04:19:29.252Z,-1.60
2023-01-21T04:22:21.232Z,-1.80
2023-01-21T04:25:12.530Z,-1.80
2023-01-21T04:28:03.273Z,-1.70
2023-01-21T04:31:13.297Z,-1.80
2023-01-21T04:34:33.737Z,-2.10
2023-01-21T04:37:33.420Z,-1.30
2023-01-21T04:40:22.203Z,-1.40
2023-01-21T04:43:26.726Z,-1.80
2023-01-21T04:46:23.541Z,-1.20
2023-01-21T04:49:18.534Z,-0.10
2023-01-21T04:52:15.003Z,-1.80
2023-01-21T04:55:10.465Z,-1.90
2023-01-21T04:58:04.976Z,-1.80
2023-01-21T05:01:38.978Z,-1.60
2023-01-21T05:05:14.656Z,-1.80
2023-01-21T05:08:28.421Z,-1.80
2023-01-21T05:11:43.826Z,-1.30
2023-01-21T05:14:45.919Z,-1.80
2023-01-21T05:17:51.159Z,-1.60
2023-01-21T05:20:58.626Z,-0.60
2023-01-21T05:23:48.316Z,-1.90
2023-01-21T05:26:47.124Z,-1.90
2023-01-21T05:29:42.838Z,-1.90
2023-01-21T05:36:54.072Z,-2.00
2023-01-21T05:44:49.209Z,-2.90
2023-01-21T05:47:48.418Z,-1.20
2023-01-21T05:55:47.627Z,-3.40
2023-01-21T05:58:58.952Z,-2.00
2023-01-21T06:02:14.417Z,-1.70
2023-01-21T06:05:43.577Z,-2.10
2023-01-21T06:08:55.258Z,-1.80
2023-01-21T06:19:21.494Z,-1.40
2023-01-21T06:22:15.081Z,-1.30
2023-01-21T06:25:13.821Z,-1.40
2023-01-21T06:28:06.175Z,-1.60
2023-01-21T06:30:58.066Z,-1.40
2023-01-21T06:33:53.403Z,-2.20
2023-01-21T06:36:47.304Z,-2.00
2023-01-21T06:39:48.882Z,-2.10
2023-01-21T06:42:38.083Z,-2.20
2023-01-21T06:45:32.389Z,-2.10
2023-01-21T06:48:20.259Z,-2.30
2023-01-21T06:51:08.112Z,-2.10
2023-01-21T06:53:56.325Z,-2.20
2023-01-21T06:56:46.119Z,-2.10
2023-01-21T06:59:33.516Z,-2.20
2023-01-21T07:02:21.247Z,-2.10
2023-01-21T07:05:09.331Z,-2.20
2023-01-21T07:07:57.411Z,-2.30
2023-01-21T07:10:47.665Z,-2.40
2023-01-21T07:13:36.595Z,-2.50
2023-01-21T07:16:24.476Z,-2.50
2023-01-21T07:19:12.693Z,-2.60
2023-01-21T07:22:00.495Z,-2.60
2023-01-21T07:24:47.956Z,-2.70
2023-01-21T07:27:36.386Z,-2.60
2023-01-21T07:30:26.216Z,-2.70
2023-01-21T07:33:15.355Z,-2.70
2023-01-21T07:36:03.140Z,-2.70
2023-01-21T07:38:51.286Z,-2.70
2023-01-21T07:41:38.817Z,-2.80
2023-01-21T07:44:32.216Z,-2.80
2023-01-21T07:47:21.787Z,-2.70
2023-01-21T07:50:09.839Z,-2.80
2023-01-21T07:52:57.104Z,-2.80
2023-01-21T07:55:46.894Z,-2.80
2023-01-21T07:58:35.075Z,-2.90
2023-01-21T08:01:25.243Z,-2.80
2023-01-21T08:04:14.839Z,-2.80
2023-01-21T08:07:12.023Z,-2.80
2023-01-21T08:10:00.620Z,-2.20
2023-01-21T08:12:47.755Z,-2.90
2023-01-21T08:15:35.191Z,-2.90
2023-01-21T08:18:23.803Z,-2.80
2023-01-21T08:21:12.774Z,-2.80
2023-01-21T08:24:00.139Z,-2.80
2023-01-21T08:26:49.197Z,-2.80
2023-01-21T08:29:37.208Z,-2.80
2023-01-21T08:32:25.024Z,-2.70
2023-01-21T08:35:13.078Z,-2.70
2023-01-21T08:38:02.790Z,-2.60
2023-01-21T08:40:50.229Z,-2.60
2023-01-21T08:43:37.794Z,-2.60
2023-01-21T08:46:25.249Z,-2.60
2023-01-21T08:49:13.274Z,-2.60
2023-01-21T08:52:00.770Z,-2.40
2023-01-21T08:54:50.881Z,-2.50
2023-01-21T08:57:38.612Z,-2.50
2023-01-21T09:00:26.777Z,-2.50
2023-01-21T09:03:17.174Z,-0.30
2023-01-21T09:06:04.828Z,-2.40
2023-01-21T09:08:52.478Z,-0.70
2023-01-21T09:11:41.415Z,-2.40
2023-01-21T09:14:29.124Z,-2.30
2023-01-21T09:17:16.706Z,-2.20
2023-01-21T09:20:04.995Z,-2.20
2023-01-21T09:22:52.504Z,-2.20
2023-01-21T09:25:40.132Z,-2.10
2023-01-21T09:28:29.474Z,-2.00
2023-01-21T09:31:18.410Z,-2.00
2023-01-21T09:34:06.596Z,-2.00
2023-01-21T09:36:54.644Z,-2.00
2023-01-21T09:39:42.205Z,-4.20
2023-01-21T09:42:32.789Z,-1.80
2023-01-21T09:45:22.049Z,-1.90
2023-01-21T09:48:12.130Z,-1.90
2023-01-21T09:51:01.596Z,-1.70
2023-01-21T09:53:50.718Z,-1.70
2023-01-21T09:56:44.049Z,-1.80
2023-01-21T09:59:40.165Z,-1.80
2023-01-21T10:02:35.040Z,-1.80
2023-01-21T10:05:37.078Z,-1.80
2023-01-21T10:08:29.294Z,-1.50
2023-01-21T10:11:23.419Z,-1.60
2023-01-21T10:14:24.142Z,-1.50
2023-01-21T10:17:15.618Z,-1.20
2023-01-21T10:20:09.383Z,-1.40
2023-01-21T10:23:03.288Z,-1.50
2023-01-21T10:25:51.174Z,-1.10
2023-01-21T10:28:40.219Z,-1.20
2023-01-21T10:31:29.655Z,-1.30
2023-01-21T10:34:18.519Z,-1.20
2023-01-21T10:37:13.593Z,-1.20
2023-01-21T10:40:04.559Z,-1.10
2023-01-21T10:42:58.193Z,-0.70
2023-01-21T10:45:48.085Z,-1.10
2023-01-21T10:48:38.781Z,-1.00
2023-01-21T10:51:29.163Z,-0.90
2023-01-21T10:54:22.856Z,-0.90
2023-01-21T10:57:17.103Z,-0.90
2023-01-21T11:00:05.729Z,1.60
2023-01-21T11:02:55.296Z,-0.70
2023-01-21T11:05:42.818Z,-0.70
2023-01-21T11:08:30.943Z,-0.60
2023-01-21T11:11:27.177Z,-0.50
2023-01-21T11:14:14.562Z,-0.40
2023-01-21T11:17:02.834Z,-0.30
2023-01-21T11:19:58.941Z,-0.20
2023-01-21T11:22:47.033Z,-0.20
2023-01-21T11:25:41.111Z,-0.10
2023-01-21T11:28:31.396Z,0.20
2023-01-21T11:31:22.281Z,1.20
2023-01-21T11:34:14.069Z,-0.10
2023-01-21T11:37:04.083Z,-0.10
2023-01-21T11:39:53.399Z,-0.20
2023-01-21T11:42:47.974Z,-0.20
2023-01-21T11:45:39.554Z,-0.10
2023-01-21T11:48:27.054Z,-2.30
2023-01-21T11:51:15.083Z,-0.10
2023-01-21T11:54:09.616Z,-0.20
2023-01-21T11:56:58.265Z,-0.20
2023-01-21T11:59:46.943Z,0.20
2023-01-21T12:02:37.465Z,-0.20
2023-01-21T12:05:28.536Z,-0.20
2023-01-21T12:08:22.136Z,-0.20
2023-01-21T12:11:10.556Z,0.10
2023-01-21T12:14:00.944Z,-0.20
2023-01-21T12:16:53.103Z,-0.20
2023-01-21T12:19:48.405Z,-0.20
2023-01-21T12:22:40.935Z,-0.20
2023-01-21T12:25:41.628Z,-0.30
2023-01-21T12:28:42.755Z,3.10
2023-01-21T12:31:33.291Z,-0.50
2023-01-21T12:34:22.715Z,-0.70
2023-01-21T12:37:15.248Z,-0.70
2023-01-21T12:40:06.848Z,-0.80
2023-01-21T12:42:55.527Z,-0.90
2023-01-21T12:45:47.713Z,-0.90
2023-01-21T12:48:36.969Z,-1.00
2023-01-21T12:51:27.157Z,-1.00
2023-01-21T12:54:19.484Z,1.50
2023-01-21T12:57:12.357Z,-1.00
2023-01-21T13:00:03.697Z,-1.00
2023-01-21T13:02:57.335Z,-1.10
2023-01-21T13:05:47.746Z,-1.00
2023-01-21T13:08:41.128Z,-1.00
2023-01-21T13:11:32.004Z,-0.90
2023-01-21T13:14:24.808Z,-0.80
2023-01-21T13:17:16.338Z,-0.80
2023-01-21T13:20:12.797Z,-0.80
2023-01-21T13:23:05.383Z,1.10
2023-01-21T13:25:58.919Z,-0.70
2023-01-21T13:28:50.251Z,-0.60
2023-01-21T13:31:41.329Z,-0.60
2023-01-21T13:34:32.793Z,-0.60
2023-01-21T13:37:22.066Z,-0.20
2023-01-21T13:40:23.125Z,-0.30
2023-01-21T13:43:15.897Z,-0.20
2023-01-21T13:46:10.437Z,-0.20
2023-01-21T13:49:04.685Z,-0.10
2023-01-21T13:51:59.297Z,-0.40
2023-01-21T13:55:02.673Z,0.20
2023-01-21T13:58:02.763Z,-0.10
2023-01-21T14:00:54.090Z,-0.10
2023-01-21T14:03:45.959Z,-0.10
2023-01-21T14:06:36.925Z,0.10
2023-01-21T14:09:26.727Z,0.00
2023-01-21T14:12:18.598Z,0.00
2023-01-21T14:15:16.482Z,0.00
2023-01-21T14:18:21.598Z,0.00
2023-01-21T14:21:25.097Z,0.00
2023-01-21T14:24:18.567Z,-0.10
2023-01-21T14:27:13.712Z,0.00
2023-01-21T14:30:10.466Z,0.00
2023-01-21T14:32:58.947Z,0.10
2023-01-21T14:35:49.017Z,0.00
2023-01-21T14:38:44.965Z,-0.10
2023-01-21T14:41:59.852Z,0.00
2023-01-21T14:45:03.385Z,2.40
2023-01-21T14:47:54.377Z,-0.10
2023-01-21T14:50:52.799Z,0.00
2023-01-21T14:53:48.718Z,0.00
2023-01-21T14:56:36.738Z,0.00
2023-01-21T14:59:33.591Z,0.00
2023-01-21T15:02:27.525Z,0.00
2023-01-21T15:05:19.984Z,0.00
2023-01-21T15:08:10.393Z,-0.10
2023-01-21T15:11:03.108Z,0.00
2023-01-21T15:14:02.069Z,-0.10
2023-01-21T15:16:50.238Z,-0.10
2023-01-21T15:19:38.270Z,0.00
2023-01-21T15:22:41.056Z,-0.10
2023-01-21T15:25:34.441Z,-0.20
2023-01-21T15:28:36.386Z,-0.20
2023-01-21T15:31:45.480Z,-0.20
2023-01-21T15:34:34.812Z,-0.30
2023-01-21T15:37:22.737Z,-0.30
2023-01-21T15:40:20.005Z,-0.30
2023-01-21T15:43:14.060Z,-0.30
2023-01-21T15:46:06.108Z,-0.30
2023-01-21T15:49:03.162Z,-0.30
2023-01-21T15:51:54.468Z,-0.30
2023-01-21T15:54:45.640Z,-0.40
2023-01-21T15:57:38.047Z,-0.40
2023-01-21T16:00:31.007Z,-0.40
2023-01-21T16:03:23.762Z,-0.40
2023-01-21T16:06:22.363Z,-0.20
2023-01-21T16:09:12.474Z,-0.20
2023-01-21T16:12:07.251Z,-0.10
2023-01-21T16:14:57.503Z,-0.20
2023-01-21T16:17:52.869Z,-0.30
2023-01-21T16:20:45.380Z,-0.40
2023-01-21T16:23:37.481Z,-0.50
2023-01-21T16:26:26.591Z,-0.60
2023-01-21T16:29:15.827Z,-0.60
2023-01-21T16:32:04.608Z,-0.60
2023-01-21T16:34:52.713Z,-0.60
2023-01-21T16:37:42.311Z,-0.40
2023-01-21T16:40:33.380Z,-0.60
2023-01-21T16:43:24.259Z,-0.80
2023-01-21T16:46:13.868Z,-0.70
2023-01-21T16:49:04.899Z,-0.80
2023-01-21T16:51:54.597Z,-0.90
2023-01-21T16:54:49.271Z,-0.90
2023-01-21T16:57:38.162Z,-1.00
2023-01-21T17:00:26.382Z,-1.00
2023-01-21T17:03:14.324Z,-1.10
2023-01-21T17:06:04.363Z,-1.10
2023-01-21T17:08:54.003Z,-1.10
2023-01-21T17:11:45.834Z,-1.00
2023-01-21T17:14:36.037Z,-1.00
2023-01-21T17:17:25.028Z,-0.90
2023-01-21T17:20:27.372Z,-1.10
2023-01-21T17:23:16.423Z,-1.00
2023-01-21T17:26:06.758Z,-0.80
2023-01-21T17:28:57.656Z,-1.00
2023-01-21T17:31:47.735Z,-1.00
2023-01-21T17:34:37.441Z,-0.90
2023-01-21T17:37:41.326Z,-0.70
2023-01-21T17:40:30.457Z,-0.80
2023-01-21T17:43:20.905Z,0.90
2023-01-21T17:46:14.830Z,-0.80
2023-01-21T17:49:07.998Z,-0.80
2023-01-21T17:51:57.245Z,-0.70
2023-01-21T17:54:49.076Z,-0.80
2023-01-21T17:57:39.554Z,-0.70
2023-01-21T18:00:32.960Z,-0.70
2023-01-21T18:03:20.412Z,-0.70
2023-01-21T18:06:12.302Z,-0.70
2023-01-21T18:09:07.214Z,-0.60
2023-01-21T18:11:55.446Z,-0.50
2023-01-21T18:14:43.530Z,-0.50
2023-01-21T18:17:31.265Z,-0.60
2023-01-21T18:20:20.579Z,-0.50
2023-01-21T18:23:10.794Z,-0.50
2023-01-21T18:25:58.564Z,-0.40
2023-01-21T18:28:46.635Z,-0.50
2023-01-21T18:31:34.720Z,-0.50
2023-01-21T18:34:22.504Z,-0.50
2023-01-21T18:37:14.259Z,-0.50
2023-01-21T18:40:03.843Z,0.20
2023-01-21T18:42:52.477Z,-0.40
2023-01-21T18:45:40.614Z,-0.50
2023-01-21T18:48:29.941Z,-0.20
2023-01-21T18:51:17.539Z,-0.40
2023-01-21T18:54:05.344Z,-0.30
2023-01-21T18:56:54.578Z,-0.40
2023-01-21T18:59:42.251Z,-0.40
2023-01-21T19:02:30.114Z,-0.40
2023-01-21T19:05:17.972Z,-0.40
2023-01-21T19:08:06.288Z,-0.50
2023-01-21T19:10:54.294Z,-0.40
2023-01-21T19:13:43.596Z,-0.30
2023-01-21T19:16:31.060Z,-0.30
2023-01-21T19:19:19.320Z,-0.20
2023-01-21T19:22:27.000Z,-0.30
2023-01-21T19:25:14.491Z,-0.20
2023-01-21T19:28:02.728Z,-0.30
2023-01-21T19:30:55.608Z,-0.30
2023-01-21T19:33:45.799Z,-0.30
2023-01-21T19:36:33.206Z,-0.30
2023-01-21T19:39:23.391Z,-0.30
2023-01-21T19:42:11.418Z,-0.30
2023-01-21T19:44:59.358Z,-0.30
2023-01-21T19:47:49.535Z,-0.30
2023-01-21T19:50:40.012Z,-0.40
2023-01-21T19:53:27.366Z,-0.30
2023-01-21T19:56:17.280Z,-0.30
2023-01-21T19:59:05.642Z,-0.20
2023-01-21T20:01:53.345Z,-0.30
2023-01-21T20:04:42.568Z,-0.30
2023-01-21T20:07:31.097Z,-0.30
2023-01-21T20:10:19.909Z,-0.30
2023-01-21T20:13:10.038Z,-0.10
2023-01-21T20:16:01.804Z,-0.30
2023-01-21T20:18:49.974Z,-0.30
2023-01-21T20:21:54.524Z,-0.30
2023-01-21T20:24:47.631Z,-0.40
2023-01-21T20:27:35.687Z,0.80
2023-01-21T20:30:26.108Z,0.20
2023-01-21T20:33:16.208Z,-0.40
2023-01-21T20:36:05.372Z,0.50
2023-01-21T20:38:55.028Z,-0.10
2023-01-21T20:41:43.628Z,-0.50
2023-01-21T20:44:32.011Z,-0.50
2023-01-21T20:47:32.633Z,-0.70
2023-01-21T20:50:27.276Z,-0.50
2023-01-21T20:53:15.847Z,-0.50
2023-01-21T20:56:15.139Z,-0.50
2023-01-21T20:59:03.123Z,-0.30
2023-01-21T21:01:51.651Z,-0.50
2023-01-21T21:04:38.915Z,-0.30
2023-01-21T21:07:26.921Z,-0.50
2023-01-21T21:10:20.989Z,-0.40
2023-01-21T21:13:10.328Z,-0.50
2023-01-21T21:15:58.068Z,-0.50
2023-01-21T21:18:46.111Z,-0.50
2023-01-21T21:21:36.135Z,-0.50
2023-01-21T21:24:30.067Z,-0.30
2023-01-21T21:27:17.339Z,-0.50
2023-01-21T21:30:08.886Z,-0.50
2023-01-21T21:32:56.922Z,-0.50
2023-01-21T21:35:44.870Z,-0.50
2023-01-21T21:38:32.798Z,-0.50
2023-01-21T21:41:38.470Z,-0.50
2023-01-21T21:44:26.719Z,-0.50
2023-01-21T21:47:32.949Z,-0.50
2023-01-21T21:50:20.851Z,-0.20
2023-01-21T21:53:09.501Z,-0.50
2023-01-21T21:56:01.262Z,-0.50
2023-01-21T21:58:48.500Z,-0.40
2023-01-21T22:01:36.238Z,-0.40
2023-01-21T22:04:24.941Z,-0.50
2023-01-21T22:07:12.837Z,-0.40
2023-01-21T22:10:00.344Z,-0.40
2023-01-21T22:12:48.835Z,-0.40
2023-01-21T22:15:40.317Z,-0.40
2023-01-21T22:18:29.291Z,-0.40
2023-01-21T22:21:19.170Z,-0.40
2023-01-21T22:24:08.359Z,-0.40
2023-01-21T22:26:56.313Z,-0.30
2023-01-21T22:29:44.277Z,-0.40
2023-01-21T22:32:31.816Z,-0.40
2023-01-21T22:35:19.983Z,-0.30
2023-01-21T22:38:09.545Z,-0.40
2023-01-21T22:40:57.096Z,-0.40
2023-01-21T22:43:45.557Z,-0.40
2023-01-21T22:46:34.003Z,-0.40
2023-01-21T22:49:21.921Z,-0.40
2023-01-21T22:52:09.862Z,-0.40
2023-01-21T22:54:59.275Z,-0.50
2023-01-21T22:57:46.497Z,-0.50
2023-01-21T23:00:36.631Z,-0.40
2023-01-21T23:03:25.010Z,-0.50
2023-01-21T23:06:13.547Z,-0.60
2023-01-21T23:09:01.695Z,-0.70
2023-01-21T23:11:52.816Z,-0.70
2023-01-21T23:14:40.466Z,-0.70
2023-01-21T23:17:29.117Z,-2.60
2023-01-21T23:20:18.662Z,-0.90
2023-01-21T23:23:06.603Z,-0.80
2023-01-21T23:25:54.231Z,-0.70
2023-01-21T23:28:44.005Z,-0.80
2023-01-21T23:31:31.483Z,-0.70
2023-01-21T23:34:19.395Z,-0.70
2023-01-21T23:37:07.203Z,-0.80
2023-01-21T23:39:54.498Z,-0.80
2023-01-21T23:42:47.397Z,-0.90
2023-01-21T23:45:36.609Z,-0.90
2023-01-21T23:48:24.283Z,-0.80
2023-01-21T23:51:12.976Z,-0.90
2023-01-21T23:54:02.089Z,-0.90
2023-01-21T23:56:49.840Z,-1.00
2023-01-21T23:59:37.991Z,-1.00
